• Join FlightAware (Why Join?)
  • Login
  • US Flag 
05:48AM EDT


 

Airport Tracker/Info


-or-


 

Live Flight TrackerFlight Track Log ✈ N21500 ✈ 30-May-2012 ✈ KHAF - KSAC

Flight Track Log - Related Links

Times and Time Zones

All times are in EDT time to prevent confusion due to time zone crossing. See the N21500 flight status page for this flight to view local times or setup timezone preferences in your user account.

Time Position Orientation Groundspeed Altitude Reporting Facility
EDT Latitude Longitude Course Direction KTS MPH feet Rate Location/Type
02:19PM 37.4667 -122.4500 50° Northeast 116 133 2,200  Level Northern Cal TRACON
02:24PM 37.5333 -122.3500 22° Northeast 130 150 5,000 420 Climbing Northern Cal TRACON
02:25PM 37.5667 -122.3333 22° Northeast 130 150 5,000  Level Northern Cal TRACON
02:26PM 37.6000 -122.3167 38° Northeast 132 152 5,000  Level Northern Cal TRACON
02:27PM 37.6333 -122.2833 22° Northeast 141 162 5,100  Climbing Northern Cal TRACON
02:28PM 37.6667 -122.2667 22° Northeast 140 161 5,000 -60 Descending Northern Cal TRACON
02:29PM 37.7000 -122.2500 38° Northeast 149 171 5,000  Level Northern Cal TRACON
02:30PM 37.7333 -122.2167 38° Northeast 153 176 5,000  Level Northern Cal TRACON
02:31PM 37.7667 -122.1833 38° Northeast 138 159 5,000 -60 Level Northern Cal TRACON
02:32PM 37.8000 -122.1500 22° Northeast 140 161 4,900 -60 Descending Northern Cal TRACON
02:33PM 37.8333 -122.1333 38° Northeast 141 162 4,900  Level Northern Cal TRACON
02:34PM 37.8667 -122.1000 44° Northeast 140 161 4,900  Level Northern Cal TRACON
02:41PM 38.0734 -121.8433 38° Northeast  Level FlightAware Approximate
02:42PM 38.1051 -121.8116 32° Northeast  Level FlightAware Approximate
02:43PM 38.1393 -121.7845 41° Northeast  Level FlightAware Approximate
02:44PM 38.1692 -121.7513 31° Northeast  Level FlightAware Approximate
02:45PM 38.2039 -121.7250 33° Northeast  Level FlightAware Approximate
02:46PM 38.2376 -121.6968 30° Northeast  Level FlightAware Approximate
02:47PM 38.2723 -121.6708 31° Northeast  Level FlightAware Approximate
02:48PM 38.3071 -121.6447 30° Northeast  Level FlightAware Approximate
02:49PM 38.3418 -121.6187 30° Northeast  Level FlightAware Approximate
02:50PM 38.3766 -121.5926 30° Northeast  Level FlightAware Approximate
02:51PM 38.4114 -121.5665 33° Northeast  Level FlightAware Approximate
02:52PM 38.4450 -121.5383 27° Northeast  Level FlightAware Approximate
02:53PM 38.4808 -121.5146 27° Northeast  Level Estimated
02:54PM 38.5166 -121.4908 207° Southwest  Level Estimated
02:55PM 38.4808 -121.5145 52° Northeast  Level Estimated
02:56PM 38.5000 -121.4833 328° Northwest  Level FlightAware Approximate
02:57PM 38.5341 -121.5109 148° Southeast  Level Estimated
02:58PM 38.5000 -121.4833 328° Northwest  Level FlightAware Approximate
02:59PM 38.5341 -121.5109 148° Southeast  Level Estimated
03:00PM 38.5000 -121.4833 328° Northwest  Level FlightAware Approximate
03:01PM 38.5341 -121.5109 148° Southeast  Level Estimated
03:02PM 38.5000 -121.4833 328° Northwest  Level FlightAware Approximate
03:03PM 38.5341 -121.5109 148° Southeast  Level Estimated
03:04PM 38.5000 -121.4833 328° Northwest  Level FlightAware Approximate
03:05PM 38.5341 -121.5109 148° Southeast  Level Estimated
03:06PM 38.5000 -121.4833 328° Northwest  Level FlightAware Approximate
03:07PM 38.5341 -121.5109 148° Southeast  Level Estimated
03:08PM 38.5000 -121.4833 328° Northwest  Level FlightAware Approximate
03:09PM 38.5341 -121.5109 148° Southeast  Level Estimated
03:10PM 38.5000 -121.4833 328° Northwest  Level FlightAware Approximate
03:11PM 38.5341 -121.5109 328° Northwest  Level Estimated